Terminal Aerodrome Forecast
Issued by NWS

Current Version | Previous Version | Graphics & Text | Print | Product List | Glossary On
Versions: 1 2 3 4 5 6 7 8 9 10 11 12 13 14 15 16 17 18 19 20 21 22 23 24 25 26 27 28 29 30 31 32 33 34 35 36 37 38 39 40 41 42 43 44 45 46 47 48 49 50
000
FTUS41 KRNK 051145 AAA
TAFLWB
TAF AMD
KLWB 051145Z 0512/0612 01003KT 3SM -RAPL OVC006
     FM051400 35006KT 1SM -FZRAPL BR OVC004
     FM051600 35004KT 1SM -SN BR OVC005
     FM052200 32005KT 3SM BR OVC008
     FM060200 34005KT P6SM OVC025=

USA.gov is the U.S. government's official web portal to all federal, state and local government web resources and services.